Time;durP1;ratioP1;P1;durP2;ratioP2;P2;SDS_P1;SDS_P2;PMS_P1;PMS_P2;Temp;Humidity;BMP_temperature;BMP_pressure;BME280_temperature;BME280_humidity;BME280_pressure;Samples;Min_cycle;Max_cycle;Signal;HPM_P1;HPM_P2
2024/02/15 00:00:53;;;;;;;57.05;24.30;;;12.00;99.90;;;;;;5061039;28;20243;-50
2024/02/15 00:03:19;;;;;;;54.60;24.52;;;12.00;99.90;;;;;;5058857;28;20186;-55
2024/02/15 00:05:46;;;;;;;58.90;23.30;;;12.00;99.90;;;;;;5060820;28;20679;-53
2024/02/15 00:08:12;;;;;;;62.63;23.45;;;12.00;99.90;;;;;;5059967;28;20214;-54
2024/02/15 00:10:38;;;;;;;51.50;23.75;;;12.00;99.90;;;;;;5060866;28;20186;-51
2024/02/15 00:13:06;;;;;;;59.70;24.40;;;12.00;99.90;;;;;;5061107;28;20212;-52
2024/02/15 00:15:34;;;;;;;60.45;24.00;;;12.00;99.90;;;;;;5060827;28;20183;-56
2024/02/15 00:18:00;;;;;;;61.05;24.92;;;12.00;99.90;;;;;;5060917;28;20678;-49
2024/02/15 00:20:26;;;;;;;59.92;24.98;;;12.00;99.90;;;;;;5059456;28;20206;-51
2024/02/15 00:22:52;;;;;;;60.83;25.27;;;12.00;99.90;;;;;;5058819;28;20281;-55
2024/02/15 00:25:19;;;;;;;64.43;25.23;;;12.00;99.90;;;;;;5060554;28;20198;-51
2024/02/15 00:27:45;;;;;;;62.60;24.42;;;12.00;99.90;;;;;;5060375;28;20248;-51
2024/02/15 00:30:11;;;;;;;57.67;25.08;;;12.00;99.90;;;;;;5060594;28;20631;-52
2024/02/15 00:32:38;;;;;;;58.10;24.23;;;12.00;99.90;;;;;;5060226;28;20182;-53
2024/02/15 00:35:09;;;;;;;60.88;24.65;;;12.10;99.90;;;;;;5060751;28;20198;-52
2024/02/15 00:37:35;;;;;;;61.60;24.17;;;12.00;99.90;;;;;;5060280;28;20276;-50
2024/02/15 00:40:03;;;;;;;64.60;25.00;;;12.10;99.90;;;;;;5060014;28;20235;-49
2024/02/15 00:42:33;;;;;;;61.00;24.90;;;12.10;99.90;;;;;;5059736;28;20198;-56
2024/02/15 00:44:59;;;;;;;59.45;26.20;;;12.10;99.90;;;;;;5059099;28;20230;-53
2024/02/15 00:47:24;;;;;;;56.53;23.80;;;12.10;99.90;;;;;;5059153;28;20283;-51
2024/02/15 00:49:50;;;;;;;60.33;25.67;;;12.10;99.90;;;;;;5058811;28;20249;-54
2024/02/15 00:52:19;;;;;;;63.63;24.40;;;12.10;99.90;;;;;;5060181;28;20183;-51
2024/02/15 00:54:46;;;;;;;58.17;25.25;;;12.10;99.90;;;;;;5074842;28;20281;-51
2024/02/15 00:57:12;;;;;;;56.53;24.92;;;12.10;99.90;;;;;;5061124;28;21138;-53
2024/02/15 00:59:37;;;;;;;52.83;23.88;;;12.10;99.90;;;;;;5063778;28;20218;-48
2024/02/15 01:02:05;;;;;;;58.13;24.13;;;12.10;99.90;;;;;;5064433;28;20265;-49
2024/02/15 01:04:31;;;;;;;54.40;23.40;;;12.10;99.90;;;;;;5063993;28;20210;-50
2024/02/15 01:06:56;;;;;;;60.00;25.88;;;12.10;99.90;;;;;;5063611;28;20603;-53
2024/02/15 01:09:23;;;;;;;51.70;23.35;;;12.10;99.90;;;;;;5064104;28;20321;-46
2024/02/15 01:11:49;;;;;;;60.55;24.40;;;12.10;99.90;;;;;;5062259;28;21105;-51
2024/02/15 01:14:15;;;;;;;62.28;24.70;;;12.20;99.90;;;;;;5063953;28;20205;-52
2024/02/15 01:16:43;;;;;;;64.20;24.45;;;12.20;99.90;;;;;;5063432;28;20301;-49
2024/02/15 01:19:09;;;;;;;61.58;24.25;;;12.10;99.90;;;;;;5062820;28;20198;-53
2024/02/15 01:21:36;;;;;;;63.95;25.15;;;12.10;99.90;;;;;;5063527;28;20600;-50
2024/02/15 01:24:03;;;;;;;61.55;24.88;;;12.10;99.90;;;;;;5063712;28;20256;-53
2024/02/15 01:26:29;;;;;;;64.72;25.73;;;12.10;99.90;;;;;;5063106;28;20198;-51
2024/02/15 01:28:55;;;;;;;55.38;23.90;;;12.10;99.90;;;;;;5059179;28;20708;-53
2024/02/15 01:31:21;;;;;;;52.08;23.58;;;12.10;99.90;;;;;;5061360;28;20225;-52
2024/02/15 01:33:48;;;;;;;62.58;24.55;;;12.10;99.90;;;;;;5063687;28;20195;-48
2024/02/15 01:36:15;;;;;;;50.75;24.60;;;12.10;99.90;;;;;;5063127;28;20178;-49
2024/02/15 01:38:41;;;;;;;58.88;24.13;;;12.10;99.90;;;;;;5061957;28;20198;-47
2024/02/15 01:41:08;;;;;;;48.65;23.27;;;12.10;99.90;;;;;;5063505;28;20539;-53
2024/02/15 01:43:34;;;;;;;56.50;23.52;;;12.10;99.90;;;;;;5063112;28;20666;-50
2024/02/15 01:46:03;;;;;;;57.20;23.30;;;12.10;99.90;;;;;;5062735;28;20670;-52
2024/02/15 01:48:32;;;;;;;43.70;22.80;;;12.10;99.90;;;;;;5061354;28;20229;-53
2024/02/15 01:50:58;;;;;;;49.85;22.85;;;12.10;99.90;;;;;;5078130;28;20194;-49
2024/02/15 01:53:25;;;;;;;50.75;23.65;;;12.10;99.90;;;;;;5061688;28;20301;-50
2024/02/15 01:55:54;;;;;;;50.55;22.92;;;12.10;99.90;;;;;;5062656;28;20387;-52
2024/02/15 01:58:20;;;;;;;45.92;24.13;;;12.10;99.90;;;;;;5062697;28;20659;-51
2024/02/15 02:00:48;;;;;;;45.33;22.23;;;12.20;99.90;;;;;;5060936;28;20200;-49
2024/02/15 02:03:14;;;;;;;53.85;22.30;;;12.10;99.90;;;;;;5049444;28;20525;-51
2024/02/15 02:05:43;;;;;;;52.65;21.92;;;12.10;99.90;;;;;;5063007;28;20205;-52
2024/02/15 02:08:09;;;;;;;40.40;20.27;;;12.10;99.90;;;;;;5061002;28;20226;-53
2024/02/15 02:10:37;;;;;;;42.35;21.30;;;12.10;99.90;;;;;;5077386;28;20208;-51
2024/02/15 02:13:03;;;;;;;47.95;20.50;;;12.10;99.90;;;;;;5063104;28;20870;-51
2024/02/15 02:15:31;;;;;;;39.70;19.80;;;12.10;99.90;;;;;;5062657;28;20190;-48
2024/02/15 02:18:00;;;;;;;43.83;19.85;;;12.10;99.90;;;;;;5062431;28;20194;-48
2024/02/15 02:20:27;;;;;;;46.00;20.38;;;12.10;99.90;;;;;;5061287;28;20202;-52
2024/02/15 02:23:07;;;;;;;37.83;18.50;;;12.20;99.90;;;;;;5062377;28;20240;-49
2024/02/15 02:25:34;;;;;;;45.72;18.85;;;12.20;99.90;;;;;;5077191;28;20234;-51
2024/02/15 02:28:00;;;;;;;37.13;18.45;;;12.10;99.90;;;;;;5062266;28;20211;-52
2024/02/15 02:30:29;;;;;;;34.80;18.08;;;12.10;99.90;;;;;;5061924;28;20194;-52
2024/02/15 02:32:56;;;;;;;42.22;18.33;;;12.20;99.90;;;;;;5059229;28;20199;-51
2024/02/15 02:35:22;;;;;;;40.35;17.85;;;12.20;99.90;;;;;;5062146;28;20186;-52
2024/02/15 02:37:49;;;;;;;40.33;16.65;;;12.20;99.90;;;;;;5061811;28;20651;-48
2024/02/15 02:40:14;;;;;;;32.13;15.98;;;12.20;99.90;;;;;;5061806;28;21024;-53
2024/02/15 02:43:06;;;;;;;41.53;16.80;;;12.20;99.90;;;;;;5060543;28;20202;-54
2024/02/15 02:45:33;;;;;;;40.10;16.50;;;12.20;99.90;;;;;;5058097;28;20226;-51
2024/02/15 02:47:58;;;;;;;40.35;16.17;;;12.20;99.90;;;;;;5059501;28;20207;-51
2024/02/15 02:50:24;;;;;;;36.05;16.70;;;12.20;99.90;;;;;;5061672;28;20190;-54
2024/02/15 02:52:51;;;;;;;38.05;15.25;;;12.20;99.90;;;;;;5062058;28;20211;-51
2024/02/15 02:55:17;;;;;;;34.70;15.15;;;12.20;99.90;;;;;;5061435;28;20181;-52
2024/02/15 02:57:43;;;;;;;26.42;13.77;;;12.20;99.90;;;;;;5061915;28;20195;-55
2024/02/15 03:00:16;;;;;;;29.77;15.02;;;12.20;99.90;;;;;;5061668;28;20614;-52
2024/02/15 03:02:43;;;;;;;29.13;14.68;;;12.20;99.90;;;;;;5061525;28;20190;-52
2024/02/15 03:05:11;;;;;;;38.25;15.27;;;12.20;99.90;;;;;;5061320;28;20175;-48
2024/02/15 03:07:37;;;;;;;28.45;13.57;;;12.20;99.90;;;;;;5061781;28;20234;-54
2024/02/15 03:10:09;;;;;;;29.33;13.65;;;12.20;99.90;;;;;;5061647;28;20662;-51
2024/02/15 03:12:38;;;;;;;25.67;13.20;;;12.20;99.90;;;;;;5061354;28;20198;-53
2024/02/15 03:15:10;;;;;;;29.80;13.45;;;12.20;99.90;;;;;;5061602;28;20209;-50
2024/02/15 03:17:40;;;;;;;29.60;13.85;;;12.20;99.90;;;;;;5061261;28;20199;-49
2024/02/15 03:20:25;;;;;;;28.30;12.55;;;12.20;99.90;;;;;;5059798;28;20186;-52
2024/02/15 03:22:55;;;;;;;24.08;12.57;;;12.20;99.90;;;;;;5061515;28;21070;-51
2024/02/15 03:25:24;;;;;;;30.15;12.65;;;12.20;99.90;;;;;;5061215;28;20352;-52
2024/02/15 03:27:55;;;;;;;34.13;12.60;;;12.30;99.90;;;;;;5060327;28;20183;-52
2024/02/15 03:30:23;;;;;;;33.00;13.35;;;12.30;99.90;;;;;;5060199;28;20634;-53
2024/02/15 03:32:52;;;;;;;31.73;12.95;;;12.30;99.90;;;;;;5061330;28;20239;-48
2024/02/15 03:35:19;;;;;;;30.50;12.55;;;12.30;99.90;;;;;;5061305;28;20187;-53
2024/02/15 03:37:45;;;;;;;36.03;12.63;;;12.30;99.90;;;;;;5060444;28;20721;-48
2024/02/15 03:40:11;;;;;;;29.20;12.13;;;12.30;99.90;;;;;;5061241;28;20190;-51
2024/02/15 03:42:37;;;;;;;28.95;12.23;;;12.30;99.90;;;;;;5060652;28;20199;-52
2024/02/15 03:45:07;;;;;;;38.67;12.43;;;12.30;99.90;;;;;;5060943;28;20276;-52
2024/02/15 03:47:35;;;;;;;38.58;13.98;;;12.30;99.90;;;;;;5059999;28;20314;-54
2024/02/15 03:50:09;;;;;;;36.30;11.82;;;12.30;99.90;;;;;;5060615;28;21064;-53
2024/02/15 03:52:36;;;;;;;33.58;12.45;;;12.30;99.90;;;;;;5060868;28;20191;-51
2024/02/15 03:55:02;;;;;;;42.05;12.63;;;12.30;99.90;;;;;;5059878;28;20247;-52
2024/02/15 03:57:55;;;;;;;36.13;13.55;;;12.30;99.90;;;;;;5059820;28;20678;-50
2024/02/15 04:00:21;;;;;;;41.00;13.30;;;12.30;99.90;;;;;;5059443;28;20547;-51
2024/02/15 04:02:50;;;;;;;44.22;12.65;;;12.40;99.90;;;;;;5059415;28;20182;-54
2024/02/15 04:05:18;;;;;;;42.90;13.32;;;12.30;99.90;;;;;;5061308;28;20186;-50
2024/02/15 04:07:44;;;;;;;39.90;12.82;;;12.30;99.90;;;;;;5061014;28;21047;-52
2024/02/15 04:10:10;;;;;;;43.25;13.75;;;12.30;99.90;;;;;;5060568;28;20191;-50
2024/02/15 04:12:36;;;;;;;39.83;13.50;;;12.40;99.90;;;;;;5060705;28;20193;-51
2024/02/15 04:15:11;;;;;;;51.58;14.63;;;12.40;99.90;;;;;;5060464;28;20195;-51
2024/02/15 04:17:38;;;;;;;44.28;14.20;;;12.40;99.90;;;;;;5060669;28;20545;-53
2024/02/15 04:20:06;;;;;;;38.60;14.10;;;12.40;99.90;;;;;;5059414;28;20191;-50
2024/02/15 04:22:36;;;;;;;47.65;14.40;;;12.40;99.90;;;;;;5060601;28;20558;-51
2024/02/15 04:25:05;;;;;;;42.22;14.80;;;12.40;99.90;;;;;;5060452;28;20205;-51
2024/02/15 04:27:32;;;;;;;35.30;14.45;;;12.50;99.90;;;;;;5059846;28;20662;-53
2024/02/15 04:29:57;;;;;;;47.92;15.45;;;12.40;99.90;;;;;;5056187;28;20226;-51
2024/02/15 04:32:23;;;;;;;37.70;14.95;;;12.50;99.90;;;;;;5062297;28;20191;-49
2024/02/15 04:34:49;;;;;;;56.55;16.30;;;12.50;99.90;;;;;;5061767;28;20190;-51
2024/02/15 04:37:16;;;;;;;45.42;15.93;;;12.50;99.90;;;;;;5062749;28;20186;-52
2024/02/15 04:39:42;;;;;;;47.28;16.30;;;12.50;99.90;;;;;;5064443;28;20199;-48
2024/02/15 04:42:11;;;;;;;45.90;16.13;;;12.50;99.90;;;;;;5063180;28;20190;-53
2024/02/15 04:44:39;;;;;;;47.05;17.20;;;12.50;99.90;;;;;;5063917;28;20593;-49
2024/02/15 04:47:05;;;;;;;50.55;16.33;;;12.50;99.90;;;;;;5064466;28;20187;-51
2024/02/15 04:49:32;;;;;;;38.15;15.85;;;12.50;99.90;;;;;;5064077;28;20639;-53
2024/02/15 04:51:58;;;;;;;48.78;17.30;;;12.50;99.90;;;;;;5063438;28;20191;-51
2024/02/15 04:54:24;;;;;;;41.42;17.25;;;12.50;99.90;;;;;;5064357;28;20202;-51
2024/02/15 04:56:54;;;;;;;43.55;17.63;;;12.50;99.90;;;;;;5064430;28;20182;-50
2024/02/15 04:59:24;;;;;;;39.83;18.13;;;12.50;99.90;;;;;;5063783;28;20195;-54
2024/02/15 05:01:50;;;;;;;39.97;17.50;;;12.60;99.90;;;;;;5062012;28;20655;-47
2024/02/15 05:04:16;;;;;;;39.05;18.35;;;12.60;99.90;;;;;;5063981;28;20217;-53
2024/02/15 05:06:41;;;;;;;44.78;19.48;;;12.60;99.90;;;;;;5062366;28;20557;-52
2024/02/15 05:09:09;;;;;;;36.95;18.50;;;12.60;99.90;;;;;;5062315;28;20214;-51
2024/02/15 05:11:38;;;;;;;39.92;19.80;;;12.60;99.90;;;;;;5063056;28;20186;-53
2024/02/15 05:14:06;;;;;;;42.42;19.75;;;12.60;99.90;;;;;;5064120;28;20195;-49
2024/02/15 05:16:33;;;;;;;39.20;19.63;;;12.60;99.90;;;;;;5063416;28;20193;-45
2024/02/15 05:18:59;;;;;;;47.40;20.98;;;12.60;99.90;;;;;;5064041;28;20201;-51
2024/02/15 05:21:24;;;;;;;42.40;20.60;;;12.60;99.90;;;;;;5062562;28;20568;-51
2024/02/15 05:23:52;;;;;;;43.10;20.40;;;12.60;99.90;;;;;;5063464;28;20191;-51
2024/02/15 05:26:23;;;;;;;37.90;20.60;;;12.60;99.90;;;;;;5059189;28;20235;-52
2024/02/15 05:28:49;;;;;;;39.35;20.50;;;12.60;99.90;;;;;;5062875;28;20280;-52
2024/02/15 05:31:19;;;;;;;42.45;21.50;;;12.60;99.90;;;;;;5061470;28;20187;-52
2024/02/15 05:33:47;;;;;;;43.80;22.00;;;12.60;99.90;;;;;;5061702;28;20201;-50
2024/02/15 05:36:20;;;;;;;43.85;21.60;;;12.60;99.90;;;;;;5063098;28;20277;-50
2024/02/15 05:38:54;;;;;;;40.85;22.70;;;12.60;99.90;;;;;;5061833;28;20282;-49
2024/02/15 05:41:20;;;;;;;47.10;23.60;;;12.60;99.90;;;;;;5062657;28;20291;-51
2024/02/15 05:43:48;;;;;;;40.67;23.63;;;12.60;99.90;;;;;;5062235;28;20194;-51
2024/02/15 05:46:14;;;;;;;48.22;25.10;;;12.60;99.90;;;;;;5060775;28;20234;-53
2024/02/15 05:48:41;;;;;;;45.67;24.35;;;12.60;99.90;;;;;;5062978;28;20713;-50
2024/02/15 05:51:08;;;;;;;49.28;24.60;;;12.70;99.90;;;;;;5062847;28;21330;-47
2024/02/15 05:53:37;;;;;;;46.58;25.40;;;12.60;99.90;;;;;;5063532;28;20186;-50
2024/02/15 05:56:06;;;;;;;48.53;28.75;;;12.60;99.90;;;;;;5061604;28;20414;-54
2024/02/15 05:58:33;;;;;;;47.00;27.58;;;12.80;99.90;;;;;;5063228;28;20562;-53
2024/02/15 06:01:02;;;;;;;45.35;26.20;;;12.70;99.90;;;;;;5045021;28;20201;-51
2024/02/15 06:03:33;;;;;;;52.95;26.48;;;12.70;99.90;;;;;;5061497;28;20198;-50
2024/02/15 06:06:06;;;;;;;46.33;26.40;;;12.70;99.90;;;;;;5062728;28;20222;-54
2024/02/15 06:08:35;;;;;;;46.38;27.33;;;12.70;99.90;;;;;;5062198;28;20632;-51
2024/02/15 06:11:02;;;;;;;46.38;26.92;;;12.70;99.90;;;;;;5060968;28;20191;-51
2024/02/15 06:13:28;;;;;;;44.83;27.02;;;12.70;99.90;;;;;;5062592;28;20198;-51
2024/02/15 06:15:54;;;;;;;48.90;28.00;;;12.70;99.90;;;;;;5062033;28;20205;-52
2024/02/15 06:18:29;;;;;;;53.97;28.33;;;12.70;99.90;;;;;;5062016;28;20195;-56
2024/02/15 06:21:02;;;;;;;45.70;27.17;;;12.70;99.90;;;;;;5061910;28;20194;-50
2024/02/15 06:23:28;;;;;;;54.05;30.13;;;12.70;99.90;;;;;;5060035;28;20529;-55
2024/02/15 06:26:01;;;;;;;50.90;30.02;;;12.70;99.90;;;;;;5061141;28;20195;-53
2024/02/15 06:39:43;;;;;;;50.28;31.45;;;12.70;99.90;;;;;;5061965;28;20222;-52
2024/02/15 06:42:11;;;;;;;60.13;31.70;;;12.70;99.90;;;;;;5061846;28;20201;-52
2024/02/15 06:44:40;;;;;;;49.53;30.88;;;12.70;99.90;;;;;;5060218;28;20178;-50
2024/02/15 06:47:06;;;;;;;56.22;33.22;;;12.70;99.90;;;;;;5060200;28;20194;-52
2024/02/15 06:49:33;;;;;;;53.17;31.95;;;12.70;99.90;;;;;;5061583;28;20263;-51
2024/02/15 06:52:01;;;;;;;57.90;33.20;;;12.70;99.90;;;;;;5043507;28;20214;-49
2024/02/15 06:54:27;;;;;;;58.38;33.35;;;12.70;99.90;;;;;;5060479;28;20191;-53
2024/02/15 06:56:54;;;;;;;60.08;33.33;;;12.70;99.90;;;;;;5060772;28;20194;-49
2024/02/15 06:59:22;;;;;;;58.05;33.65;;;12.70;99.90;;;;;;5061065;28;20186;-54
2024/02/15 07:01:52;;;;;;;63.08;33.38;;;12.70;99.90;;;;;;5060099;28;20194;-52
2024/02/15 07:04:20;;;;;;;52.28;32.30;;;12.70;99.90;;;;;;5043168;28;20248;-49
2024/02/15 07:06:47;;;;;;;58.80;33.35;;;12.70;99.90;;;;;;5061401;28;20230;-54
2024/02/15 07:09:19;;;;;;;55.95;33.13;;;12.70;99.90;;;;;;5061214;28;20218;-52
2024/02/15 07:11:46;;;;;;;51.13;32.38;;;12.70;99.90;;;;;;5059401;28;20236;-51
2024/02/15 07:14:12;;;;;;;55.10;33.63;;;12.70;99.90;;;;;;5034564;28;20197;-54
2024/02/15 07:16:38;;;;;;;58.67;33.67;;;12.80;99.90;;;;;;5058610;28;20193;-53
2024/02/15 07:19:04;;;;;;;58.17;35.00;;;12.80;99.90;;;;;;5059939;28;20266;-47
2024/02/15 07:21:31;;;;;;;56.63;34.38;;;12.80;99.90;;;;;;5059108;28;20195;-52
2024/02/15 07:23:58;;;;;;;65.93;33.45;;;12.80;99.90;;;;;;5038904;28;20209;-52
2024/02/15 07:26:25;;;;;;;62.67;34.58;;;12.80;99.90;;;;;;5060620;28;20198;-52
2024/02/15 07:28:54;;;;;;;57.47;33.55;;;12.80;99.90;;;;;;5060320;28;20749;-52
2024/02/15 07:31:27;;;;;;;56.53;34.25;;;12.90;99.90;;;;;;5060281;28;20573;-54
2024/02/15 07:33:53;;;;;;;60.92;34.45;;;12.80;99.90;;;;;;5060626;28;20201;-52
2024/02/15 07:36:22;;;;;;;59.67;34.08;;;12.80;99.90;;;;;;5058393;28;20884;-53
2024/02/15 07:38:50;;;;;;;58.05;33.72;;;12.90;99.90;;;;;;5059788;28;20201;-50
2024/02/15 07:41:22;;;;;;;54.58;34.25;;;12.90;99.90;;;;;;5057173;28;20186;-48
2024/02/15 07:43:55;;;;;;;54.20;32.83;;;12.90;99.90;;;;;;5059672;28;20248;-52
2024/02/15 07:46:21;;;;;;;55.72;32.88;;;12.90;99.90;;;;;;5058161;28;20282;-53
2024/02/15 07:48:48;;;;;;;58.10;32.53;;;12.90;99.90;;;;;;5058806;28;20215;-55
2024/02/15 07:51:15;;;;;;;51.53;32.88;;;12.90;99.90;;;;;;5058774;28;20202;-53
2024/02/15 07:53:42;;;;;;;57.83;32.40;;;12.90;99.90;;;;;;5059138;28;20218;-51
2024/02/15 07:56:10;;;;;;;49.22;31.92;;;12.90;99.90;;;;;;5060187;28;20248;-50
2024/02/15 07:58:41;;;;;;;55.88;33.80;;;13.00;99.90;;;;;;5041300;28;20229;-52
2024/02/15 08:01:09;;;;;;;53.67;31.05;;;13.00;99.90;;;;;;5060462;28;20207;-51
2024/02/15 08:03:35;;;;;;;56.33;31.17;;;13.00;99.90;;;;;;5060176;28;20689;-51
2024/02/15 08:06:06;;;;;;;49.58;31.13;;;13.00;99.90;;;;;;5059651;28;20948;-52
2024/02/15 08:08:35;;;;;;;51.95;30.60;;;13.00;99.90;;;;;;5025910;28;20307;-52
2024/02/15 08:11:04;;;;;;;49.22;30.02;;;13.00;99.90;;;;;;5060390;28;20240;-53
2024/02/15 08:13:58;;;;;;;48.53;30.63;;;13.00;99.90;;;;;;5058889;28;20193;-50
2024/02/15 08:16:27;;;;;;;48.00;30.08;;;13.00;99.90;;;;;;5060252;28;20194;-53
2024/02/15 08:18:54;;;;;;;51.45;29.33;;;13.00;99.90;;;;;;5059064;28;20251;-51
2024/02/15 08:21:32;;;;;;;51.80;29.70;;;12.90;99.90;;;;;;5060062;28;20205;-51
2024/02/15 08:24:05;;;;;;;48.83;28.77;;;13.00;99.90;;;;;;5059787;28;20194;-54
2024/02/15 08:26:40;;;;;;;49.78;28.65;;;13.00;99.90;;;;;;5060314;28;20243;-52
2024/02/15 08:29:06;;;;;;;56.13;28.00;;;13.00;99.90;;;;;;5059203;28;20218;-52
2024/02/15 08:31:33;;;;;;;43.35;27.30;;;13.00;99.90;;;;;;5059960;28;20212;-51
2024/02/15 08:34:01;;;;;;;48.38;25.67;;;13.00;99.90;;;;;;5060315;28;20178;-50
2024/02/15 08:36:27;;;;;;;45.20;27.17;;;13.00;99.90;;;;;;5060112;28;20661;-53
2024/02/15 08:38:53;;;;;;;39.30;25.73;;;13.00;99.90;;;;;;5059092;28;20202;-51
2024/02/15 08:41:20;;;;;;;41.78;25.13;;;13.00;99.90;;;;;;5059875;28;20191;-52
2024/02/15 08:43:48;;;;;;;47.10;25.90;;;13.10;99.90;;;;;;5060214;28;20199;-48
2024/02/15 08:46:14;;;;;;;41.17;24.10;;;13.00;99.90;;;;;;5059258;28;20234;-49
2024/02/15 08:48:40;;;;;;;36.15;22.75;;;13.10;99.90;;;;;;5056627;28;20206;-49
2024/02/15 08:51:08;;;;;;;38.33;22.67;;;13.10;99.90;;;;;;5058535;28;20701;-51
2024/02/15 08:53:36;;;;;;;38.72;23.52;;;13.10;99.90;;;;;;5059165;28;20190;-55
2024/02/15 08:56:03;;;;;;;37.30;22.48;;;13.10;99.90;;;;;;5057469;28;20199;-55
2024/02/15 08:58:30;;;;;;;39.20;23.10;;;13.10;99.90;;;;;;5059105;28;20301;-51
2024/02/15 09:00:58;;;;;;;38.65;21.85;;;13.10;99.90;;;;;;5059320;28;20630;-51
2024/02/15 09:03:24;;;;;;;37.83;22.42;;;13.10;99.90;;;;;;5059782;28;20190;-56
2024/02/15 09:05:51;;;;;;;38.35;22.17;;;13.10;99.90;;;;;;5059961;28;20663;-49
2024/02/15 09:08:20;;;;;;;41.90;22.30;;;13.10;99.90;;;;;;5041339;28;20568;-49
2024/02/15 09:10:47;;;;;;;34.30;21.55;;;13.10;99.90;;;;;;5060048;28;20218;-52
2024/02/15 09:13:14;;;;;;;32.55;20.65;;;13.10;99.90;;;;;;5058162;28;20222;-51
2024/02/15 09:15:41;;;;;;;31.48;20.50;;;13.10;99.90;;;;;;5059836;28;20198;-53
2024/02/15 09:18:09;;;;;;;31.52;20.95;;;13.10;99.90;;;;;;5061234;28;20259;-49
2024/02/15 09:20:37;;;;;;;35.42;20.15;;;13.20;99.90;;;;;;5063769;28;20208;-51
2024/02/15 09:23:09;;;;;;;31.55;20.40;;;13.20;99.90;;;;;;5063565;28;20661;-54
2024/02/15 09:25:37;;;;;;;34.40;20.40;;;13.20;99.90;;;;;;5046039;28;20805;-53
2024/02/15 09:28:03;;;;;;;32.05;19.75;;;13.20;99.90;;;;;;5063389;28;20190;-52
2024/02/15 09:30:31;;;;;;;33.22;19.48;;;13.20;99.90;;;;;;5063039;28;20244;-50
2024/02/15 09:32:57;;;;;;;28.60;19.45;;;13.20;99.90;;;;;;5063209;28;20648;-52
2024/02/15 09:35:23;;;;;;;31.88;20.67;;;13.20;99.90;;;;;;5061956;28;20197;-55
2024/02/15 09:37:49;;;;;;;26.88;18.50;;;13.30;99.90;;;;;;5044862;28;20918;-53
2024/02/15 09:40:17;;;;;;;33.53;19.58;;;13.30;99.90;;;;;;5062820;28;20194;-56
2024/02/15 09:42:47;;;;;;;31.90;19.50;;;13.30;99.90;;;;;;5063314;28;20202;-50
2024/02/15 09:45:18;;;;;;;29.75;19.15;;;13.30;99.90;;;;;;5061856;28;20230;-51
2024/02/15 09:47:44;;;;;;;26.83;17.88;;;13.40;99.90;;;;;;5049204;28;20214;-49
2024/02/15 09:50:13;;;;;;;27.63;18.40;;;13.40;99.90;;;;;;5062662;28;20224;-47
2024/02/15 09:52:40;;;;;;;28.02;18.48;;;13.50;99.90;;;;;;5061452;28;20553;-52
2024/02/15 09:55:13;;;;;;;25.80;18.88;;;13.50;99.90;;;;;;5062413;28;20218;-52
2024/02/15 09:57:43;;;;;;;24.55;17.35;;;13.60;99.90;;;;;;5063532;28;20225;-50
2024/02/15 10:00:13;;;;;;;24.48;17.45;;;13.60;99.90;;;;;;5062241;28;20194;-54
2024/02/15 10:02:41;;;;;;;23.75;17.17;;;13.70;99.90;;;;;;5062611;28;20194;-51
2024/02/15 10:05:17;;;;;;;26.40;17.23;;;13.70;99.90;;;;;;5062529;28;20191;-51
2024/02/15 10:07:44;;;;;;;24.15;17.23;;;13.80;99.90;;;;;;5062706;28;20186;-52
2024/02/15 10:10:20;;;;;;;24.85;17.05;;;13.80;99.90;;;;;;5062991;28;20198;-52
2024/02/15 10:12:55;;;;;;;22.85;16.88;;;13.80;99.90;;;;;;5062937;28;21019;-51
2024/02/15 10:15:31;;;;;;;26.15;16.45;;;13.90;99.90;;;;;;5062301;28;20224;-52
2024/02/15 10:17:58;;;;;;;24.38;16.23;;;13.90;99.90;;;;;;5061158;28;20196;-48
2024/02/15 10:20:27;;;;;;;20.17;16.10;;;13.90;99.90;;;;;;5060265;28;20198;-52
2024/02/15 10:23:09;;;;;;;25.08;16.50;;;14.00;99.90;;;;;;5062665;28;20552;-50
2024/02/15 10:25:36;;;;;;;19.70;14.20;;;14.00;99.90;;;;;;5062449;28;20272;-53
2024/02/15 10:28:07;;;;;;;21.95;14.95;;;14.10;99.90;;;;;;5060245;28;20655;-50
2024/02/15 10:30:44;;;;;;;20.85;14.13;;;14.10;99.90;;;;;;5061204;28;20199;-53
2024/02/15 10:33:20;;;;;;;19.48;13.20;;;14.10;99.90;;;;;;5061805;28;20650;-50
2024/02/15 10:35:46;;;;;;;17.77;13.35;;;14.20;99.90;;;;;;5061746;28;20182;-50
2024/02/15 10:38:13;;;;;;;16.23;12.82;;;14.20;99.90;;;;;;5062168;28;20331;-46
2024/02/15 10:40:43;;;;;;;14.45;11.77;;;14.30;99.90;;;;;;5061660;28;20205;-49
2024/02/15 10:43:12;;;;;;;17.55;11.65;;;14.40;99.90;;;;;;5061758;28;20190;-48
2024/02/15 10:45:40;;;;;;;15.75;11.63;;;14.40;99.90;;;;;;5060863;28;20218;-51
2024/02/15 10:48:10;;;;;;;20.33;11.25;;;14.40;99.90;;;;;;5061729;28;20195;-50
2024/02/15 10:50:39;;;;;;;14.38;10.65;;;14.40;99.90;;;;;;5061409;28;20704;-54
2024/02/15 10:53:22;;;;;;;15.73;10.30;;;14.40;99.90;;;;;;5061600;28;20193;-50
2024/02/15 10:56:09;;;;;;;12.57;10.05;;;14.50;99.90;;;;;;5061465;28;20193;-50
2024/02/15 10:58:46;;;;;;;13.38;9.93;;;14.40;99.90;;;;;;5061591;28;20696;-52
2024/02/15 11:01:17;;;;;;;11.82;9.93;;;14.40;99.90;;;;;;5061744;28;20723;-51
2024/02/15 11:03:59;;;;;;;14.85;9.93;;;14.40;99.90;;;;;;5060932;28;20190;-52
2024/02/15 11:06:29;;;;;;;13.20;9.45;;;14.40;99.90;;;;;;5076867;28;20758;-54
2024/02/15 11:08:56;;;;;;;16.00;10.52;;;14.30;99.90;;;;;;5061065;28;21380;-50
2024/02/15 11:11:22;;;;;;;11.52;9.48;;;14.40;99.90;;;;;;5061141;28;20632;-52
2024/02/15 11:13:48;;;;;;;16.20;10.05;;;14.30;99.90;;;;;;5061024;28;20190;-51
2024/02/15 11:16:41;;;;;;;10.82;8.98;;;14.40;99.90;;;;;;5076180;28;20210;-50
2024/02/15 11:19:06;;;;;;;11.82;9.40;;;14.30;99.90;;;;;;5061585;28;20210;-52
2024/02/15 11:21:56;;;;;;;11.23;9.20;;;14.40;99.90;;;;;;5060002;28;20206;-51
2024/02/15 11:24:32;;;;;;;10.05;8.90;;;14.40;99.90;;;;;;5060458;28;20312;-51
2024/02/15 11:27:02;;;;;;;10.05;7.57;;;14.40;99.90;;;;;;5061050;28;20206;-53
2024/02/15 11:29:51;;;;;;;10.52;7.80;;;14.40;99.90;;;;;;5058782;28;20249;-53
2024/02/15 11:32:55;;;;;;;8.30;7.00;;;14.30;99.90;;;;;;5059757;28;20200;-53
2024/02/15 11:35:22;;;;;;;7.72;6.43;;;14.30;99.90;;;;;;5060577;28;20185;-53
2024/02/15 11:37:48;;;;;;;7.75;6.80;;;14.30;99.90;;;;;;5060681;28;21126;-51
2024/02/15 11:40:27;;;;;;;7.80;6.65;;;14.30;99.90;;;;;;5061040;28;20190;-52
2024/02/15 11:42:59;;;;;;;7.85;5.97;;;14.30;99.90;;;;;;5059966;28;20191;-53
2024/02/15 11:45:33;;;;;;;6.10;5.50;;;14.40;99.90;;;;;;5060561;28;20249;-50
2024/02/15 11:47:59;;;;;;;7.07;5.35;;;14.30;99.90;;;;;;5060635;28;20213;-52
2024/02/15 11:50:28;;;;;;;7.40;5.65;;;14.30;99.90;;;;;;5060905;28;20178;-54
2024/02/15 11:53:06;;;;;;;5.68;4.78;;;14.40;99.90;;;;;;5060265;28;20187;-49
2024/02/15 11:55:32;;;;;;;6.38;5.30;;;14.30;99.90;;;;;;5060388;28;20190;-51
2024/02/15 11:58:18;;;;;;;5.28;4.78;;;14.30;99.90;;;;;;5060350;28;20530;-52
2024/02/15 12:20:06;;;;;;;5.00;4.13;;;14.40;99.90;;;;;;5060541;28;20210;-55
2024/02/15 12:22:44;;;;;;;6.15;4.22;;;14.40;99.90;;;;;;5060489;28;21095;-50
2024/02/15 12:25:15;;;;;;;5.40;3.92;;;14.40;99.90;;;;;;5060308;28;20201;-51
2024/02/15 12:27:42;;;;;;;5.70;3.88;;;14.40;99.90;;;;;;5060836;28;20190;-52
2024/02/15 12:30:15;;;;;;;5.63;4.03;;;14.40;99.90;;;;;;5059214;28;20693;-55
2024/02/15 12:32:40;;;;;;;4.75;3.97;;;14.40;99.90;;;;;;5060424;28;20175;-49
2024/02/15 12:35:16;;;;;;;4.78;4.13;;;14.50;99.90;;;;;;5059817;28;20194;-50
2024/02/15 12:37:43;;;;;;;6.38;4.18;;;14.50;99.90;;;;;;5058617;28;21276;-53
2024/02/15 12:40:17;;;;;;;6.22;4.63;;;14.50;99.90;;;;;;5061036;28;20205;-50
2024/02/15 12:42:52;;;;;;;5.40;4.80;;;14.50;99.90;;;;;;5060240;28;20179;-48
2024/02/15 12:45:20;;;;;;;5.53;4.85;;;14.50;99.90;;;;;;5060242;28;20802;-52
2024/02/15 12:47:52;;;;;;;9.88;5.10;;;14.50;99.90;;;;;;5059835;28;20256;-53
2024/02/15 12:50:22;;;;;;;7.60;5.30;;;14.50;99.90;;;;;;5060289;28;20222;-53
2024/02/15 12:52:53;;;;;;;6.82;6.03;;;14.40;99.90;;;;;;5061214;28;20222;-53
2024/02/15 12:55:24;;;;;;;8.32;6.45;;;14.50;99.90;;;;;;5059934;28;20213;-47
2024/02/15 12:57:51;;;;;;;9.90;7.53;;;14.50;99.90;;;;;;5063777;28;20693;-51
2024/02/15 13:00:28;;;;;;;8.80;6.82;;;14.50;99.90;;;;;;5063883;28;20201;-50
2024/02/15 13:02:55;;;;;;;10.30;6.78;;;14.50;99.90;;;;;;5064224;28;20595;-51
2024/02/15 13:05:24;;;;;;;10.23;8.00;;;14.40;99.90;;;;;;5063879;28;20198;-52
2024/02/15 13:07:51;;;;;;;13.50;8.80;;;14.40;99.90;;;;;;5063189;28;20210;-50